createdAt,value
2017-03-22T00:00:35.663Z,6.49
2017-03-22T00:01:35.651Z,6.51
2017-03-22T00:02:35.681Z,6.38
2017-03-22T00:03:35.329Z,6.38
2017-03-22T00:04:35.623Z,6.31
2017-03-22T00:05:35.614Z,6.31
2017-03-22T00:06:35.333Z,6.4
2017-03-22T00:07:35.584Z,6.34
2017-03-22T00:08:35.579Z,6.18
2017-03-22T00:09:35.568Z,6.3
2017-03-22T00:10:35.554Z,6.28
2017-03-22T00:11:35.241Z,6.19
2017-03-22T00:12:35.230Z,6.19
2017-03-22T00:13:35.521Z,6.14
2017-03-22T00:14:35.516Z,6.08
2017-03-22T00:15:35.499Z,5.97
2017-03-22T00:16:35.491Z,6.01
2017-03-22T00:17:35.479Z,6.06
2017-03-22T00:18:35.468Z,6.06
2017-03-22T00:19:35.810Z,6
2017-03-22T00:20:35.446Z,5.94
2017-03-22T00:21:35.432Z,5.93
2017-03-22T00:22:35.423Z,5.94
2017-03-22T00:23:35.412Z,5.99
2017-03-22T00:24:35.406Z,5.93
2017-03-22T00:25:35.390Z,5.86
2017-03-22T00:26:35.377Z,5.89
2017-03-22T00:27:35.369Z,5.83
2017-03-22T00:28:35.357Z,5.83
2017-03-22T00:29:35.344Z,5.76
2017-03-22T00:30:35.030Z,5.76
2017-03-22T00:31:35.321Z,5.78
2017-03-22T00:32:35.309Z,5.75
2017-03-22T00:33:35.311Z,5.72
2017-03-22T00:34:35.287Z,5.64
2017-03-22T00:35:35.278Z,5.63
2017-03-22T00:36:34.959Z,5.61
2017-03-22T00:37:35.259Z,5.57
2017-03-22T00:38:35.251Z,5.56
2017-03-22T00:39:35.234Z,5.71
2017-03-22T00:40:35.220Z,5.6
2017-03-22T00:41:35.208Z,5.56
2017-03-22T00:42:35.200Z,5.54
2017-03-22T00:43:35.187Z,5.57
2017-03-22T00:44:35.179Z,5.51
2017-03-22T00:45:35.164Z,5.53
2017-03-22T00:46:35.149Z,5.46
2017-03-22T00:47:35.139Z,5.48
2017-03-22T00:48:35.130Z,5.42
2017-03-22T00:49:35.116Z,5.54
2017-03-22T00:50:35.101Z,5.45
2017-03-22T00:51:35.090Z,5.45
2017-03-22T00:52:35.079Z,5.39
2017-03-22T00:53:34.768Z,5.39
2017-03-22T00:54:35.057Z,5.4
2017-03-22T00:55:35.048Z,5.3
2017-03-22T00:56:35.032Z,5.33
2017-03-22T00:57:35.022Z,5.27
2017-03-22T00:58:35.013Z,5.24
2017-03-22T00:59:35.005Z,5.2
2017-03-22T01:00:34.988Z,5.28
2017-03-22T01:01:34.975Z,5.22
2017-03-22T01:02:34.967Z,5.2
2017-03-22T01:03:34.954Z,5.25
2017-03-22T01:04:34.945Z,5.2
2017-03-22T01:05:34.929Z,5.21
2017-03-22T01:06:34.617Z,5.2
2017-03-22T01:07:34.605Z,5.06
2017-03-22T01:08:34.907Z,5.06
2017-03-22T01:09:34.883Z,5.04
2017-03-22T01:10:34.871Z,5.04
2017-03-22T01:11:34.859Z,5.12
2017-03-22T01:12:34.845Z,5
2017-03-22T01:13:34.842Z,4.99
2017-03-22T01:14:34.825Z,5
2017-03-22T01:15:34.810Z,4.97
2017-03-22T01:16:34.800Z,4.91
2017-03-22T01:17:34.791Z,4.92
2017-03-22T01:18:34.783Z,4.97
2017-03-22T01:19:34.462Z,4.96
2017-03-22T01:20:34.749Z,4.86
2017-03-22T01:21:34.745Z,4.94
2017-03-22T01:22:34.730Z,4.99
2017-03-22T01:23:34.719Z,4.94
2017-03-22T01:24:34.704Z,4.89
2017-03-22T01:25:34.694Z,4.92
2017-03-22T01:26:34.681Z,4.89
2017-03-22T01:27:34.669Z,4.89
2017-03-22T01:28:34.660Z,4.84
2017-03-22T01:29:34.642Z,4.84
2017-03-22T01:30:34.631Z,4.75
2017-03-22T01:31:34.617Z,4.88
2017-03-22T01:32:34.610Z,4.73
2017-03-22T01:33:34.300Z,4.69
2017-03-22T01:34:34.582Z,4.73
2017-03-22T01:35:34.570Z,4.69
2017-03-22T01:36:34.559Z,4.78
2017-03-22T01:37:34.552Z,4.65
2017-03-22T01:38:34.544Z,4.6
2017-03-22T01:39:33.916Z,4.67
2017-03-22T01:40:34.514Z,4.67
2017-03-22T01:41:34.498Z,4.59
2017-03-22T01:42:34.492Z,4.62
2017-03-22T01:43:34.479Z,4.62
2017-03-22T01:44:34.468Z,4.48
2017-03-22T01:45:34.451Z,4.48
2017-03-22T01:46:34.440Z,4.51
2017-03-22T01:47:34.427Z,4.47
2017-03-22T01:48:34.431Z,4.47
2017-03-22T01:49:34.102Z,4.47
2017-03-22T01:50:34.086Z,4.37
2017-03-22T01:51:34.378Z,4.42
2017-03-22T01:52:34.376Z,4.42
2017-03-22T01:53:34.358Z,4.4
2017-03-22T01:54:34.343Z,4.33
2017-03-22T01:55:34.026Z,4.3
2017-03-22T01:56:34.017Z,4.36
2017-03-22T01:57:34.053Z,4.33
2017-03-22T01:58:33.991Z,4.37
2017-03-22T01:59:34.278Z,4.27
2017-03-22T02:00:34.274Z,4.29
2017-03-22T02:01:34.255Z,4.27
2017-03-22T02:02:34.245Z,4.27
2017-03-22T02:03:34.232Z,4.3
2017-03-22T02:04:34.217Z,4.27
2017-03-22T02:05:34.206Z,4.29
2017-03-22T02:06:34.193Z,4.27
2017-03-22T02:07:34.179Z,4.14
2017-03-22T02:08:34.172Z,4.12
2017-03-22T02:09:34.156Z,4.08
2017-03-22T02:10:34.142Z,4.15
2017-03-22T02:11:34.136Z,4.12
2017-03-22T02:12:34.119Z,4.14
2017-03-22T02:13:34.109Z,4.11
2017-03-22T02:14:33.789Z,4.06
2017-03-22T02:15:34.080Z,4.02
2017-03-22T02:16:34.072Z,4
2017-03-22T02:17:34.058Z,3.94
2017-03-22T02:18:34.043Z,4.02
2017-03-22T02:19:34.032Z,3.94
2017-03-22T02:20:34.021Z,3.93
2017-03-22T02:21:33.707Z,3.93
2017-03-22T02:22:33.991Z,3.96
2017-03-22T02:23:33.984Z,3.96
2017-03-22T02:24:33.971Z,3.93
2017-03-22T02:25:33.965Z,3.91
2017-03-22T02:26:33.946Z,3.94
2017-03-22T02:27:33.625Z,3.91
2017-03-22T02:28:33.928Z,3.91
2017-03-22T02:29:33.906Z,3.9
2017-03-22T02:30:33.892Z,3.93
2017-03-22T02:31:33.882Z,3.9
2017-03-22T02:32:33.866Z,3.94
2017-03-22T02:33:33.858Z,3.88
2017-03-22T02:34:33.874Z,4.08
2017-03-22T02:35:33.827Z,4.05
2017-03-22T02:36:33.813Z,4.06
2017-03-22T02:37:33.801Z,4.04
2017-03-22T02:38:33.795Z,3.97
2017-03-22T02:39:33.777Z,4.04
2017-03-22T02:40:33.766Z,4.08
2017-03-22T02:41:33.754Z,4.05
2017-03-22T02:44:33.715Z,4.15
2017-03-22T02:45:33.702Z,4.06
2017-03-22T02:54:33.589Z,4.22
2017-03-22T02:55:33.612Z,4.2
2017-03-22T02:56:33.971Z,4.29
2017-03-22T02:57:33.554Z,4.24
2017-03-22T02:58:33.542Z,4.27
2017-03-22T02:59:33.527Z,4.27
2017-03-22T03:00:33.514Z,4.26
2017-03-22T03:01:33.502Z,4.24
2017-03-22T03:02:33.189Z,4.27
2017-03-22T03:03:33.480Z,4.32
2017-03-22T03:04:33.464Z,4.22
2017-03-22T03:05:33.450Z,4.26
2017-03-22T03:06:33.450Z,4.27
2017-03-22T03:07:33.427Z,4.26
2017-03-22T03:08:33.429Z,4.27
2017-03-22T03:09:33.402Z,4.36
2017-03-22T03:10:33.389Z,4.33
2017-03-22T03:11:33.376Z,4.29
2017-03-22T03:12:33.366Z,4.29
2017-03-22T03:13:33.353Z,4.33
2017-03-22T03:14:33.345Z,4.24
2017-03-22T03:15:33.331Z,4.32
2017-03-22T03:16:33.312Z,4.26
2017-03-22T03:17:33.302Z,4.27
2017-03-22T03:18:32.990Z,4.3
2017-03-22T03:19:33.281Z,4.26
2017-03-22T03:20:33.262Z,4.29
2017-03-22T03:21:33.250Z,4.26
2017-03-22T03:22:32.938Z,4.26
2017-03-22T03:23:32.929Z,4.24
2017-03-22T03:24:33.215Z,4.26
2017-03-22T03:25:33.207Z,4.24
2017-03-22T03:26:33.190Z,4.29
2017-03-22T03:27:33.174Z,4.26
2017-03-22T03:28:33.165Z,4.3
2017-03-22T03:29:33.158Z,4.32
2017-03-22T03:30:33.138Z,4.29
2017-03-22T03:31:33.127Z,4.37
2017-03-22T03:32:32.811Z,4.42
2017-03-22T03:33:33.110Z,4.44
2017-03-22T03:34:33.089Z,4.41
2017-03-22T03:35:33.084Z,4.44
2017-03-22T03:36:32.760Z,4.37
2017-03-22T03:37:33.055Z,4.47
2017-03-22T03:38:32.738Z,4.45
2017-03-22T03:39:33.025Z,4.48
2017-03-22T03:40:33.014Z,4.47
2017-03-22T03:41:33.002Z,4.47
2017-03-22T03:42:32.997Z,4.52
2017-03-22T03:43:32.980Z,4.47
2017-03-22T03:44:32.703Z,4.45
2017-03-22T03:45:32.650Z,4.51
2017-03-22T03:46:32.939Z,4.47
2017-03-22T03:47:32.928Z,4.48
2017-03-22T03:48:32.616Z,4.54
2017-03-22T03:49:32.901Z,4.55
2017-03-22T03:50:32.888Z,4.48
2017-03-22T03:51:32.573Z,4.62
2017-03-22T03:52:32.865Z,4.58
2017-03-22T03:53:32.860Z,4.69
2017-03-22T03:54:32.843Z,4.63
2017-03-22T03:55:32.832Z,4.6
2017-03-22T03:56:32.509Z,4.6
2017-03-22T03:57:32.805Z,4.6
2017-03-22T03:58:32.794Z,4.6
2017-03-22T03:59:32.780Z,4.69
2017-03-22T04:00:32.767Z,4.66
2017-03-22T04:01:32.755Z,4.65
2017-03-22T04:02:32.747Z,4.59
2017-03-22T04:03:32.730Z,4.69
2017-03-22T04:04:32.722Z,4.66
2017-03-22T04:05:32.705Z,4.7
2017-03-22T04:06:32.692Z,4.69
2017-03-22T04:07:32.717Z,4.72
2017-03-22T04:08:32.684Z,4.72
2017-03-22T04:09:32.656Z,4.65
2017-03-22T04:10:32.645Z,4.72
2017-03-22T04:11:32.628Z,4.7
2017-03-22T04:12:32.317Z,4.72
2017-03-22T04:13:32.607Z,4.69
2017-03-22T04:14:32.848Z,4.6
2017-03-22T04:15:32.580Z,4.67
2017-03-22T04:16:32.595Z,4.67
2017-03-22T04:17:32.560Z,4.66
2017-03-22T04:18:32.256Z,4.63
2017-03-22T04:19:32.230Z,4.69
2017-03-22T04:20:32.520Z,4.62
2017-03-22T04:21:32.207Z,4.89
2017-03-22T04:22:32.498Z,4.72
2017-03-22T04:23:32.185Z,4.78
2017-03-22T04:24:32.471Z,4.75
2017-03-22T04:25:32.459Z,4.67
2017-03-22T04:26:32.446Z,4.75
2017-03-22T04:27:32.435Z,4.77
2017-03-22T04:28:32.432Z,4.82
2017-03-22T04:29:32.413Z,4.7
2017-03-22T04:30:32.400Z,4.82
2017-03-22T04:31:32.385Z,4.85
2017-03-22T04:32:32.071Z,4.82
2017-03-22T04:33:32.059Z,4.73
2017-03-22T04:34:32.353Z,4.69
2017-03-22T04:35:32.337Z,4.73
2017-03-22T04:36:32.370Z,4.73
2017-03-22T04:37:32.311Z,4.75
2017-03-22T04:38:31.999Z,4.82
2017-03-22T04:39:32.288Z,4.67
2017-03-22T04:40:32.310Z,4.66
2017-03-22T04:41:32.261Z,4.66
2017-03-22T04:42:32.260Z,4.75
2017-03-22T04:43:32.244Z,4.82
2017-03-22T04:44:32.227Z,4.75
2017-03-22T04:45:32.219Z,4.75
2017-03-22T04:46:32.201Z,4.84
2017-03-22T04:47:32.189Z,4.8
2017-03-22T04:48:32.180Z,4.78
2017-03-22T04:49:32.167Z,4.82
2017-03-22T04:50:32.152Z,4.84
2017-03-22T04:51:31.838Z,4.75
2017-03-22T04:52:32.128Z,4.77
2017-03-22T04:53:32.163Z,4.8
2017-03-22T04:54:32.116Z,4.86
2017-03-22T04:55:32.093Z,4.8
2017-03-22T04:56:32.082Z,4.77
2017-03-22T04:57:32.067Z,4.75
2017-03-22T04:58:32.055Z,4.75
2017-03-22T04:59:32.052Z,4.82
2017-03-22T05:00:32.031Z,4.82
2017-03-22T05:01:32.022Z,4.8
2017-03-22T05:02:32.009Z,4.77
2017-03-22T05:03:32.039Z,4.85
2017-03-22T05:04:31.678Z,4.8
2017-03-22T05:05:31.969Z,4.8
2017-03-22T05:06:31.660Z,4.85
2017-03-22T05:07:31.945Z,4.86
2017-03-22T05:08:31.937Z,4.78
2017-03-22T05:09:31.918Z,4.77
2017-03-22T05:10:31.907Z,4.78
2017-03-22T05:11:31.895Z,4.77
2017-03-22T05:12:31.904Z,4.88
2017-03-22T05:13:31.874Z,4.88
2017-03-22T05:14:31.863Z,4.88
2017-03-22T05:15:31.847Z,4.88
2017-03-22T05:16:31.834Z,4.89
2017-03-22T05:17:31.827Z,4.88
2017-03-22T05:18:31.815Z,4.89
2017-03-22T05:19:31.808Z,4.97
2017-03-22T05:20:31.786Z,4.96
2017-03-22T05:21:31.778Z,4.94
2017-03-22T05:22:31.766Z,4.96
2017-03-22T05:23:31.761Z,4.96
2017-03-22T05:24:31.742Z,4.94
2017-03-22T05:25:31.421Z,5.03
2017-03-22T05:26:31.715Z,5.06
2017-03-22T05:27:31.704Z,5.07
2017-03-22T05:28:31.693Z,5.12
2017-03-22T05:29:31.688Z,5.2
2017-03-22T05:30:31.666Z,5.09
2017-03-22T05:31:31.655Z,5.2
2017-03-22T05:32:31.678Z,5.18
2017-03-22T05:33:31.631Z,5.25
2017-03-22T05:34:31.618Z,5.27
2017-03-22T05:35:31.602Z,5.22
2017-03-22T05:36:31.595Z,5.2
2017-03-22T05:37:31.581Z,5.22
2017-03-22T05:38:31.575Z,5.3
2017-03-22T05:39:31.557Z,5.3
2017-03-22T05:40:31.588Z,5.36
2017-03-22T05:41:31.533Z,5.36
2017-03-22T05:42:31.522Z,5.49
2017-03-22T05:43:31.518Z,5.56
2017-03-22T05:44:31.499Z,5.58
2017-03-22T05:45:31.496Z,5.58
2017-03-22T05:46:31.474Z,5.58
2017-03-22T05:47:31.467Z,5.64
2017-03-22T05:48:31.452Z,5.63
2017-03-22T05:49:31.441Z,5.76
2017-03-22T05:50:31.428Z,5.72
2017-03-22T05:51:31.415Z,5.85
2017-03-22T05:52:31.406Z,5.82
2017-03-22T05:53:31.395Z,5.86
2017-03-22T05:54:31.387Z,5.96
2017-03-22T05:55:31.372Z,5.89
2017-03-22T05:56:31.088Z,6
2017-03-22T05:57:31.381Z,6.01
2017-03-22T05:58:31.339Z,6.12
2017-03-22T05:59:31.326Z,6.12
2017-03-22T06:00:31.321Z,6.12
2017-03-22T06:01:30.997Z,6.28
2017-03-22T06:02:31.297Z,6.31
2017-03-22T06:03:31.287Z,6.33
2017-03-22T06:04:31.270Z,6.38
2017-03-22T06:05:30.956Z,6.4
2017-03-22T06:06:31.249Z,6.54
2017-03-22T06:07:31.239Z,6.55
2017-03-22T06:08:31.229Z,6.54
2017-03-22T06:09:31.214Z,6.56
2017-03-22T06:10:31.203Z,6.61
2017-03-22T06:11:31.192Z,6.67
2017-03-22T06:12:31.182Z,6.87
2017-03-22T06:13:31.174Z,6.88
2017-03-22T06:14:31.163Z,6.84
2017-03-22T06:15:31.148Z,6.94
2017-03-22T06:16:31.138Z,6.94
2017-03-22T06:17:30.824Z,7.07
2017-03-22T06:18:31.117Z,7.07
2017-03-22T06:19:31.112Z,7.02
2017-03-22T06:20:31.098Z,7.2
2017-03-22T06:21:31.089Z,7.23
2017-03-22T06:22:31.080Z,7.25
2017-03-22T06:23:31.073Z,7.27
2017-03-22T06:24:31.054Z,7.3
2017-03-22T06:25:31.043Z,7.28
2017-03-22T06:26:31.037Z,7.34
2017-03-22T06:27:31.035Z,7.43
2017-03-22T06:28:31.019Z,7.48
2017-03-22T06:29:31.006Z,7.58
2017-03-22T06:30:30.994Z,7.53
2017-03-22T06:31:30.985Z,7.6
2017-03-22T06:32:30.978Z,7.63
2017-03-22T06:33:30.967Z,7.71
2017-03-22T06:34:30.959Z,7.77
2017-03-22T06:35:30.945Z,7.8
2017-03-22T06:36:30.632Z,7.89
2017-03-22T06:37:30.926Z,7.95
2017-03-22T06:38:30.920Z,8.02
2017-03-22T06:39:30.911Z,8.2
2017-03-22T06:40:30.898Z,8.23
2017-03-22T06:41:30.886Z,8.33
2017-03-22T06:42:30.882Z,8.33
2017-03-22T06:43:30.872Z,8.4
2017-03-22T06:44:30.865Z,8.48
2017-03-22T06:45:30.849Z,8.52
2017-03-22T06:46:30.845Z,8.73
2017-03-22T06:47:30.839Z,8.71
2017-03-22T06:48:30.827Z,8.8
2017-03-22T06:49:30.815Z,8.95
2017-03-22T06:50:30.199Z,9.08
2017-03-22T06:51:30.795Z,9.18
2017-03-22T06:52:30.789Z,9.28
2017-03-22T06:53:30.786Z,9.33
2017-03-22T06:54:30.780Z,9.42
2017-03-22T06:55:30.768Z,9.47
2017-03-22T06:56:30.757Z,9.42
2017-03-22T06:57:30.749Z,9.46
2017-03-22T06:58:30.744Z,9.65
2017-03-22T06:59:30.731Z,9.72
2017-03-22T07:00:30.726Z,9.71
2017-03-22T07:01:30.720Z,9.84
2017-03-22T07:02:30.712Z,9.79
2017-03-22T07:03:30.705Z,9.97
2017-03-22T07:04:30.695Z,10.02
2017-03-22T07:05:30.687Z,10.11
2017-03-22T07:06:30.677Z,10.2
2017-03-22T07:07:30.673Z,10.18
2017-03-22T07:08:30.363Z,10.26
2017-03-22T07:09:30.359Z,10.34
2017-03-22T07:10:30.654Z,10.42
2017-03-22T07:11:30.644Z,10.4
2017-03-22T07:12:30.639Z,10.55
2017-03-22T07:13:30.635Z,10.66
2017-03-22T07:14:30.630Z,10.71
2017-03-22T07:15:30.616Z,10.86
2017-03-22T07:16:30.614Z,11.03
2017-03-22T07:17:30.604Z,11.09
2017-03-22T07:18:30.605Z,11.24
2017-03-22T07:19:30.596Z,11.35
2017-03-22T07:20:30.586Z,11.28
2017-03-22T07:21:30.580Z,11.44
2017-03-22T07:22:30.276Z,11.39
2017-03-22T07:23:30.575Z,11.4
2017-03-22T07:24:30.267Z,11.47
2017-03-22T07:25:30.557Z,11.51
2017-03-22T07:26:30.558Z,11.72
2017-03-22T07:27:30.552Z,11.82
2017-03-22T07:28:30.549Z,11.82
2017-03-22T07:29:30.552Z,11.91
2017-03-22T07:30:30.536Z,11.95
2017-03-22T07:31:30.226Z,12.04
2017-03-22T07:32:30.528Z,12.05
2017-03-22T07:33:30.221Z,12.13
2017-03-22T07:34:30.213Z,12.35
2017-03-22T07:35:30.811Z,12.56
2017-03-22T07:36:30.516Z,12.65
2017-03-22T07:37:30.508Z,12.82
2017-03-22T07:38:30.507Z,13.14
2017-03-22T07:39:30.502Z,13.2
2017-03-22T07:40:30.498Z,13.42
2017-03-22T07:41:30.497Z,13.55
2017-03-22T07:42:30.493Z,13.71
2017-03-22T07:43:30.497Z,14.03
2017-03-22T07:44:30.492Z,14.18
2017-03-22T07:45:30.487Z,14.25
2017-03-22T07:46:30.184Z,14.33
2017-03-22T07:47:30.491Z,14.47
2017-03-22T07:48:30.487Z,14.57
2017-03-22T07:49:30.484Z,14.69
2017-03-22T07:50:30.480Z,14.7
2017-03-22T07:51:30.480Z,14.86
2017-03-22T07:52:30.491Z,14.84
2017-03-22T07:53:30.520Z,15.02
2017-03-22T07:54:30.479Z,15.1
2017-03-22T07:55:30.481Z,15.14
2017-03-22T07:56:30.474Z,15.06
2017-03-22T07:57:30.481Z,15.06
2017-03-22T07:58:30.485Z,15.1
2017-03-22T07:59:30.483Z,15.11
2017-03-22T08:00:30.475Z,15.2
2017-03-22T08:01:30.175Z,15.32
2017-03-22T08:02:30.170Z,15.16
2017-03-22T08:03:30.479Z,15.17
2017-03-22T08:04:30.171Z,15.16
2017-03-22T08:05:30.479Z,15.06
2017-03-22T08:06:30.478Z,14.94
2017-03-22T08:07:30.481Z,14.83
2017-03-22T08:08:30.478Z,14.73
2017-03-22T08:09:30.482Z,14.57
2017-03-22T08:10:30.478Z,14.6
2017-03-22T08:11:30.176Z,14.35
2017-03-22T08:12:30.180Z,14.28
2017-03-22T08:13:30.476Z,14.21
2017-03-22T08:14:30.179Z,14.09
2017-03-22T08:15:30.476Z,14.04
2017-03-22T08:16:30.475Z,13.89
2017-03-22T08:17:30.477Z,13.78
2017-03-22T08:18:30.476Z,13.63
2017-03-22T08:19:30.476Z,13.62
2017-03-22T08:20:30.476Z,13.44
2017-03-22T08:21:30.469Z,13.32
2017-03-22T08:22:30.467Z,13.28
2017-03-22T08:23:30.474Z,13.1
2017-03-22T08:24:30.463Z,12.96
2017-03-22T08:25:30.460Z,12.87
2017-03-22T08:26:30.459Z,12.72
2017-03-22T08:27:30.450Z,12.64
2017-03-22T08:28:30.455Z,12.5
2017-03-22T08:29:30.539Z,12.38
2017-03-22T08:30:30.449Z,12.38
2017-03-22T08:31:30.439Z,12.27
2017-03-22T08:32:30.432Z,12.21
2017-03-22T08:33:30.430Z,12.17
2017-03-22T08:34:30.122Z,12.12
2017-03-22T08:35:30.420Z,12.05
2017-03-22T08:36:30.416Z,11.9
2017-03-22T08:37:30.420Z,11.95
2017-03-22T08:38:30.406Z,11.85
2017-03-22T08:39:30.403Z,11.86
2017-03-22T08:40:30.397Z,11.79
2017-03-22T08:41:30.390Z,11.72
2017-03-22T08:42:30.386Z,11.6
2017-03-22T08:43:30.384Z,11.54
2017-03-22T08:44:30.375Z,11.46
2017-03-22T08:45:30.370Z,11.43
2017-03-22T08:46:30.366Z,11.42
2017-03-22T08:47:30.357Z,11.36
2017-03-22T08:48:30.358Z,11.28
2017-03-22T08:49:30.348Z,11.27
2017-03-22T08:50:30.036Z,11.28
2017-03-22T08:51:30.338Z,11.22
2017-03-22T08:52:30.027Z,11.24
2017-03-22T08:53:30.018Z,11.25
2017-03-22T08:54:30.326Z,11.28
2017-03-22T08:55:30.313Z,11.28
2017-03-22T08:56:30.309Z,11.28
2017-03-22T08:57:29.693Z,11.33
2017-03-22T08:58:30.291Z,11.24
2017-03-22T08:59:30.287Z,11.35
2017-03-22T09:00:30.283Z,11.37
2017-03-22T09:01:30.274Z,11.37
2017-03-22T09:02:30.268Z,11.46
2017-03-22T09:03:30.268Z,11.52
2017-03-22T09:04:30.255Z,11.49
2017-03-22T09:05:30.251Z,11.58
2017-03-22T09:06:30.287Z,11.73
2017-03-22T09:07:30.237Z,11.79
2017-03-22T09:08:30.228Z,11.86
2017-03-22T09:09:30.231Z,11.83
2017-03-22T09:10:30.219Z,11.99
2017-03-22T09:11:29.912Z,12.01
2017-03-22T09:12:30.206Z,12.12
2017-03-22T09:13:30.204Z,12.12
2017-03-22T09:14:30.197Z,12.23
2017-03-22T09:15:30.220Z,12.2
2017-03-22T09:16:29.880Z,12.2
2017-03-22T09:17:30.176Z,12.13
2017-03-22T09:18:30.175Z,12.19
2017-03-22T09:19:30.164Z,12.28
2017-03-22T09:20:30.160Z,12.32
2017-03-22T09:21:30.154Z,12.34
2017-03-22T09:22:29.843Z,12.23
2017-03-22T09:23:30.140Z,12.21
2017-03-22T09:24:30.136Z,12.24
2017-03-22T09:25:30.129Z,12.24
2017-03-22T09:26:30.123Z,12.24
2017-03-22T09:27:29.815Z,12.29
2017-03-22T09:28:30.113Z,12.47
2017-03-22T09:29:30.106Z,12.53
2017-03-22T09:30:30.106Z,12.68
2017-03-22T09:31:30.099Z,12.74
2017-03-22T09:32:30.090Z,12.85
2017-03-22T09:33:30.083Z,12.89
2017-03-22T09:34:30.078Z,12.95
2017-03-22T09:35:30.072Z,13.04
2017-03-22T09:36:30.065Z,13.01
2017-03-22T09:37:30.068Z,13.04
2017-03-22T09:38:30.058Z,13.04
2017-03-22T09:39:30.052Z,13.01
2017-03-22T09:40:30.053Z,12.96
2017-03-22T09:41:29.736Z,13
2017-03-22T09:42:30.036Z,12.92
2017-03-22T09:43:30.032Z,12.9
2017-03-22T09:44:30.024Z,12.83
2017-03-22T09:45:30.223Z,12.86
2017-03-22T09:46:30.015Z,12.86
2017-03-22T09:47:30.011Z,12.79
2017-03-22T09:48:30.002Z,12.75
2017-03-22T09:49:29.997Z,12.72
2017-03-22T09:50:29.994Z,12.72
2017-03-22T09:51:29.990Z,12.6
2017-03-22T09:52:29.679Z,12.56
2017-03-22T09:53:29.974Z,12.42
2017-03-22T09:54:29.968Z,12.45
2017-03-22T09:55:29.662Z,12.34
2017-03-22T09:56:30.168Z,12.21
2017-03-22T09:57:29.952Z,12.12
2017-03-22T09:58:29.951Z,11.99
2017-03-22T09:59:29.941Z,11.96
2017-03-22T10:00:29.935Z,11.83
2017-03-22T10:01:29.929Z,11.88
2017-03-22T10:02:29.922Z,11.85
2017-03-22T10:03:29.918Z,11.83
2017-03-22T10:04:29.917Z,11.83
2017-03-22T10:05:29.906Z,11.79
2017-03-22T10:06:29.904Z,11.85
2017-03-22T10:07:29.892Z,11.9
2017-03-22T10:08:29.887Z,11.8
2017-03-22T10:09:29.577Z,11.85
2017-03-22T10:10:29.874Z,11.86
2017-03-22T10:11:29.871Z,11.82
2017-03-22T10:12:29.867Z,11.65
2017-03-22T10:13:29.853Z,11.76
2017-03-22T10:14:29.848Z,11.69
2017-03-22T10:15:29.844Z,11.8
2017-03-22T10:16:29.850Z,11.76
2017-03-22T10:17:29.827Z,11.85
2017-03-22T10:18:29.825Z,11.86
2017-03-22T10:19:29.820Z,11.95
2017-03-22T10:20:29.810Z,11.95
2017-03-22T10:21:29.803Z,12.13
2017-03-22T10:22:29.803Z,12.17
2017-03-22T10:23:29.793Z,12.1
2017-03-22T10:24:29.486Z,12.27
2017-03-22T10:25:29.779Z,12.31
2017-03-22T10:26:29.784Z,12.31
2017-03-22T10:27:29.766Z,12.38
2017-03-22T10:28:29.762Z,12.29
2017-03-22T10:29:29.753Z,12.38
2017-03-22T10:30:29.751Z,12.41
2017-03-22T10:31:29.751Z,12.42
2017-03-22T10:32:29.433Z,12.39
2017-03-22T10:33:29.731Z,12.35
2017-03-22T10:34:29.723Z,12.46
2017-03-22T10:35:29.718Z,12.5
2017-03-22T10:36:29.716Z,12.49
2017-03-22T10:37:29.710Z,12.38
2017-03-22T10:38:29.698Z,12.35
2017-03-22T10:39:29.695Z,12.38
2017-03-22T10:40:29.692Z,12.27
2017-03-22T10:41:29.682Z,12.28
2017-03-22T10:42:29.680Z,12.21
2017-03-22T10:43:29.671Z,12.12
2017-03-22T10:44:29.661Z,12.1
2017-03-22T10:45:29.696Z,12.19
2017-03-22T10:46:29.652Z,12.09
2017-03-22T10:47:29.645Z,12.13
2017-03-22T10:48:29.639Z,12.09
2017-03-22T10:49:29.332Z,12.04
2017-03-22T10:50:29.623Z,12.19
2017-03-22T10:51:29.317Z,12.17
2017-03-22T10:52:29.618Z,12.21
2017-03-22T10:53:29.606Z,12.23
2017-03-22T10:54:29.601Z,12.27
2017-03-22T10:55:29.594Z,12.39
2017-03-22T10:56:29.589Z,12.41
2017-03-22T10:57:29.580Z,12.56
2017-03-22T10:58:29.573Z,12.53
2017-03-22T10:59:29.572Z,12.7
2017-03-22T11:00:29.562Z,12.77
2017-03-22T11:01:29.556Z,12.77
2017-03-22T11:02:29.551Z,12.87
2017-03-22T11:03:29.543Z,13
2017-03-22T11:04:29.539Z,13.11
2017-03-22T11:05:29.531Z,13.17
2017-03-22T11:06:29.526Z,13.14
2017-03-22T11:07:29.520Z,13.15
2017-03-22T11:08:29.514Z,13.2
2017-03-22T11:09:29.507Z,13.28
2017-03-22T11:10:29.503Z,13.33
2017-03-22T11:11:29.496Z,13.3
2017-03-22T11:12:29.493Z,13.36
2017-03-22T11:13:29.184Z,13.3
2017-03-22T11:14:29.488Z,13.32
2017-03-22T11:15:29.473Z,13.26
2017-03-22T11:16:29.472Z,13.22
2017-03-22T11:17:29.160Z,13.23
2017-03-22T11:18:29.457Z,13.22
2017-03-22T11:19:29.453Z,13.14
2017-03-22T11:20:29.449Z,13.11
2017-03-22T11:21:29.741Z,13.04
2017-03-22T11:22:29.436Z,13
2017-03-22T11:23:29.428Z,12.96
2017-03-22T11:24:29.424Z,13
2017-03-22T11:25:29.419Z,13
2017-03-22T11:26:29.419Z,13
2017-03-22T11:27:29.414Z,12.86
2017-03-22T11:28:29.403Z,12.82
2017-03-22T11:29:29.394Z,12.83
2017-03-22T11:30:29.390Z,12.9
2017-03-22T11:31:29.386Z,12.78
2017-03-22T11:32:29.380Z,12.71
2017-03-22T11:33:29.070Z,12.75
2017-03-22T11:34:29.367Z,12.75
2017-03-22T11:35:29.361Z,12.77
2017-03-22T11:36:29.355Z,12.72
2017-03-22T11:37:29.349Z,12.74
2017-03-22T11:38:29.341Z,12.75
2017-03-22T11:39:29.343Z,12.72
2017-03-22T11:40:29.332Z,12.74
2017-03-22T11:41:29.326Z,12.72
2017-03-22T11:42:29.351Z,12.67
2017-03-22T11:43:29.313Z,12.68
2017-03-22T11:44:29.306Z,12.7
2017-03-22T11:45:29.303Z,12.68
2017-03-22T11:46:28.992Z,12.7
2017-03-22T11:47:29.288Z,12.67
2017-03-22T11:48:28.986Z,12.74
2017-03-22T11:49:29.276Z,12.74
2017-03-22T11:50:29.274Z,12.79
2017-03-22T11:51:29.266Z,12.79
2017-03-22T11:52:28.955Z,12.75
2017-03-22T11:53:28.951Z,12.77
2017-03-22T11:54:29.246Z,12.75
2017-03-22T11:55:29.240Z,12.77
2017-03-22T11:56:29.235Z,12.75
2017-03-22T11:57:29.228Z,12.74
2017-03-22T11:58:29.228Z,12.77
2017-03-22T11:59:29.216Z,12.87
2017-03-22T12:00:29.210Z,12.9
2017-03-22T12:01:29.207Z,12.86
2017-03-22T12:02:29.206Z,13
2017-03-22T12:03:29.191Z,12.92
2017-03-22T12:04:29.192Z,13.03
2017-03-22T12:05:29.187Z,12.97
2017-03-22T12:06:29.173Z,13.01
2017-03-22T12:07:29.167Z,13.01
2017-03-22T12:08:29.164Z,13.05
2017-03-22T12:09:29.157Z,13.04
2017-03-22T12:10:29.156Z,13.08
2017-03-22T12:11:29.148Z,13.15
2017-03-22T12:12:29.144Z,13.14
2017-03-22T12:13:29.131Z,13.22
2017-03-22T12:14:28.862Z,13.42
2017-03-22T12:15:29.121Z,13.62
2017-03-22T12:16:29.123Z,13.71
2017-03-22T12:17:29.112Z,13.89
2017-03-22T12:18:29.103Z,14
2017-03-22T12:19:29.100Z,14.12
2017-03-22T12:20:29.098Z,14.17
2017-03-22T12:21:29.087Z,14.29
2017-03-22T12:22:29.082Z,14.33
2017-03-22T12:23:29.076Z,14.43
2017-03-22T12:24:29.070Z,14.64
2017-03-22T12:25:29.068Z,14.58
2017-03-22T12:26:29.101Z,14.72
2017-03-22T12:27:29.057Z,14.81
2017-03-22T12:28:29.049Z,14.84
2017-03-22T12:29:29.044Z,14.95
2017-03-22T12:30:28.739Z,15.14
2017-03-22T12:31:29.037Z,15.23
2017-03-22T12:32:29.030Z,15.23
2017-03-22T12:33:28.729Z,15.32
2017-03-22T12:34:29.022Z,15.36
2017-03-22T12:35:28.720Z,15.41
2017-03-22T12:36:29.014Z,15.51
2017-03-22T12:37:29.011Z,15.59
2017-03-22T12:38:29.004Z,15.6
2017-03-22T12:39:29.037Z,15.78
2017-03-22T12:40:28.998Z,15.74
2017-03-22T12:41:28.994Z,15.75
2017-03-22T12:42:28.991Z,15.69
2017-03-22T12:43:28.682Z,15.67
2017-03-22T12:44:28.980Z,15.57
2017-03-22T12:45:28.978Z,15.6
2017-03-22T12:46:28.973Z,15.64
2017-03-22T12:47:28.968Z,15.51
2017-03-22T12:48:28.966Z,15.6
2017-03-22T12:49:28.360Z,15.67
2017-03-22T12:50:28.961Z,15.68
2017-03-22T12:51:28.957Z,15.64
2017-03-22T12:52:28.650Z,15.82
2017-03-22T12:53:28.945Z,15.92
2017-03-22T12:54:28.640Z,16.08
2017-03-22T12:55:28.941Z,16.21
2017-03-22T12:56:28.941Z,16.23
2017-03-22T12:57:28.634Z,16.2
2017-03-22T12:58:28.627Z,16.24
2017-03-22T12:59:28.931Z,16.14
2017-03-22T13:00:28.924Z,16.2
2017-03-22T13:01:28.921Z,16.28
2017-03-22T13:02:28.615Z,16.21
2017-03-22T13:03:28.915Z,16.25
2017-03-22T13:04:28.913Z,16.17
2017-03-22T13:05:28.910Z,16.21
2017-03-22T13:06:28.906Z,16.21
2017-03-22T13:07:28.911Z,16.25
2017-03-22T13:08:28.905Z,16.25
2017-03-22T13:09:28.895Z,16.27
2017-03-22T13:10:28.285Z,16.34
2017-03-22T13:11:28.891Z,16.34
2017-03-22T13:12:28.886Z,16.43
2017-03-22T13:13:28.884Z,16.53
2017-03-22T13:14:28.881Z,16.66
2017-03-22T13:15:28.575Z,16.61
2017-03-22T13:16:28.882Z,16.7
2017-03-22T13:17:28.574Z,16.76
2017-03-22T13:18:28.567Z,16.75
2017-03-22T13:19:28.866Z,16.7